Time;durP1;ratioP1;P1;durP2;ratioP2;P2;SDS_P1;SDS_P2;PMS_P1;PMS_P2;Temp;Humidity;BMP_temperature;BMP_pressure;BME280_temperature;BME280_humidity;BME280_pressure;Samples;Min_cycle;Max_cycle;Signal;HPM_P1;HPM_P2
2021/12/01 00:00:50;;;;;;;;;7.75;5.25;;;;;11.64;64.26;100636.16;5021218;28;45450;-65
2021/12/01 00:03:16;;;;;;;;;10.75;10.00;;;;;11.64;64.43;100629.91;5020819;28;45338;-65
2021/12/01 00:05:42;;;;;;;;;4.00;4.00;;;;;11.65;63.93;100629.00;5020668;28;45457;-65
2021/12/01 00:08:08;;;;;;;;;8.00;6.50;;;;;11.60;63.75;100617.63;5021329;28;45458;-65
2021/12/01 00:10:36;;;;;;;;;10.50;6.00;;;;;11.60;64.51;100629.16;5020889;28;45411;-64
2021/12/01 00:13:06;;;;;;;;;4.00;4.00;;;;;11.60;64.15;100617.63;5018376;28;45537;-64
2021/12/01 00:15:31;;;;;;;;;7.50;6.50;;;;;11.65;64.26;100618.31;5021154;28;45521;-64
2021/12/01 00:17:57;;;;;;;;;8.25;5.50;;;;;11.63;64.39;100606.81;5020874;28;46910;-65
2021/12/01 00:20:23;;;;;;;;;6.00;6.00;;;;;11.65;64.25;100589.75;5021360;28;45216;-65
2021/12/01 00:22:49;;;;;;;;;12.50;6.25;;;;;11.65;64.31;100586.22;5020185;28;45433;-65
2021/12/01 00:25:18;;;;;;;;;6.50;6.00;;;;;11.64;64.36;100577.34;5020793;28;45292;-65
2021/12/01 00:27:44;;;;;;;;;10.50;10.25;;;;;11.64;64.36;100568.44;5020693;28;47988;-65
2021/12/01 00:30:10;;;;;;;;;8.75;7.50;;;;;11.65;64.36;100563.03;5021006;28;45585;-65
2021/12/01 00:32:36;;;;;;;;;5.75;5.75;;;;;11.65;64.57;100557.69;5020414;28;45310;-64
2021/12/01 00:35:07;;;;;;;;;7.50;7.50;;;;;11.64;64.56;100539.00;5020614;28;45287;-64
2021/12/01 00:37:32;;;;;;;;;7.25;7.25;;;;;11.63;64.57;100526.59;5020729;28;47097;-65
2021/12/01 00:39:58;;;;;;;;;8.25;6.75;;;;;11.65;64.39;100522.06;5020738;28;45252;-65
2021/12/01 00:42:23;;;;;;;;;8.25;7.25;;;;;11.64;64.42;100512.28;5020750;28;45248;-65
2021/12/01 00:44:55;;;;;;;;;6.75;6.00;;;;;11.65;64.48;100500.66;5020139;28;45532;-65
2021/12/01 00:47:22;;;;;;;;;6.25;6.00;;;;;11.62;64.27;100482.06;5020084;28;47608;-65
2021/12/01 00:49:48;;;;;;;;;10.00;6.25;;;;;11.64;64.62;100482.88;5020451;28;45385;-64
2021/12/01 00:52:13;;;;;;;;;8.00;6.00;;;;;11.61;64.44;100474.97;5020304;28;45384;-65
2021/12/01 00:54:39;;;;;;;;;5.50;5.50;;;;;11.61;64.75;100466.94;5020503;28;45568;-64
2021/12/01 00:57:04;;;;;;;;;4.75;4.75;;;;;11.59;64.80;100474.16;5020297;28;48777;-64
2021/12/01 00:59:29;;;;;;;;;5.75;5.75;;;;;11.56;64.79;100452.91;5020740;28;45315;-65
2021/12/01 01:01:55;;;;;;;;;5.00;5.00;;;;;11.59;64.74;100448.31;5020073;28;45251;-64
2021/12/01 01:04:21;;;;;;;;;9.25;5.50;;;;;11.59;64.86;100444.75;5020088;28;45432;-65
2021/12/01 01:06:47;;;;;;;;;5.00;5.00;;;;;11.62;64.34;100444.66;5020222;28;46292;-65
2021/12/01 01:09:12;;;;;;;;;5.00;4.25;;;;;11.64;64.47;100440.97;5020521;28;45264;-65
2021/12/01 01:17:13;;;;;;;;;3.75;3.75;;;;;11.65;64.66;100426.66;5006360;28;45433;-65
2021/12/01 01:19:39;;;;;;;;;6.00;6.00;;;;;11.67;64.35;100432.81;5020222;28;45504;-65
2021/12/01 01:22:07;;;;;;;;;4.00;4.00;;;;;11.67;64.63;100423.94;5019591;28;45465;-65
2021/12/01 01:24:33;;;;;;;;;7.00;5.25;;;;;11.67;64.60;100413.25;5019779;28;45296;-65
2021/12/01 01:26:58;;;;;;;;;6.75;6.00;;;;;11.67;64.62;100410.56;5020145;28;46203;-65
2021/12/01 01:29:25;;;;;;;;;6.75;6.00;;;;;11.68;64.28;100407.81;5019966;28;45342;-64
2021/12/01 01:31:53;;;;;;;;;5.75;5.00;;;;;11.68;64.36;100401.63;5020021;28;45228;-65
2021/12/01 01:34:18;;;;;;;;;9.25;7.00;;;;;11.70;64.39;100407.75;5019624;28;45600;-65
2021/12/01 01:36:43;;;;;;;;;8.00;7.00;;;;;11.73;64.33;100398.72;5019998;28;45239;-64
2021/12/01 01:39:09;;;;;;;;;5.75;5.75;;;;;11.71;64.33;100405.94;5019474;28;45356;-65
2021/12/01 01:41:34;;;;;;;;;10.00;6.75;;;;;11.67;64.45;100390.03;5019949;28;45306;-65
2021/12/01 01:44:00;;;;;;;;;9.25;7.00;;;;;11.70;64.45;100394.41;5018151;28;45471;-64
2021/12/01 01:46:31;;;;;;;;;5.75;5.75;;;;;11.69;64.34;100389.97;5019623;28;46168;-64
2021/12/01 01:49:05;;;;;;;;;9.50;7.00;;;;;11.69;64.65;100389.97;5019709;28;45265;-65
2021/12/01 01:51:31;;;;;;;;;7.00;5.50;;;;;11.68;64.32;100382.91;5019377;28;45462;-65
2021/12/01 01:53:57;;;;;;;;;5.25;4.75;;;;;11.67;64.55;100378.47;5019554;28;45342;-65
2021/12/01 01:56:24;;;;;;;;;5.00;5.00;;;;;11.65;64.46;100383.88;5019566;28;46873;-65
2021/12/01 01:58:50;;;;;;;;;5.00;5.00;;;;;11.65;64.39;100380.34;5019688;28;45374;-65
2021/12/01 02:01:38;;;;;;;;;6.75;6.50;;;;;11.66;64.71;100380.28;5019643;28;45450;-65
2021/12/01 02:04:05;;;;;;;;;5.25;5.25;;;;;11.65;64.21;100373.19;5012310;28;45222;-64
2021/12/01 02:06:31;;;;;;;;;7.00;6.50;;;;;11.66;64.26;100382.06;5019500;28;46165;-65
2021/12/01 02:08:58;;;;;;;;;6.50;6.00;;;;;11.62;64.75;100370.66;5018745;28;45287;-65
2021/12/01 02:11:26;;;;;;;;;6.75;6.75;;;;;11.58;64.88;100363.72;5019415;28;45390;-65
2021/12/01 02:13:52;;;;;;;;;6.75;6.75;;;;;11.59;64.79;100353.88;5017626;28;45451;-65
2021/12/01 02:16:19;;;;;;;;;7.00;6.00;;;;;11.59;65.04;100349.38;5019231;28;46019;-65
2021/12/01 02:18:45;;;;;;;;;5.75;5.75;;;;;11.62;64.89;100332.34;5019369;28;45240;-65
2021/12/01 02:21:17;;;;;;;;;10.00;7.75;;;;;11.65;65.09;100350.94;5018910;28;45486;-64
2021/12/01 02:23:42;;;;;;;;;4.50;4.50;;;;;11.62;65.10;100325.19;5019293;28;45287;-65
2021/12/01 02:26:09;;;;;;;;;6.00;6.00;;;;;11.63;65.07;100324.28;5019154;28;45414;-65
2021/12/01 02:28:35;;;;;;;;;7.00;7.00;;;;;11.61;65.07;100322.59;5020730;28;45204;-65
2021/12/01 02:31:02;;;;;;;;;9.75;6.75;;;;;11.57;65.66;100313.84;5022676;28;45349;-65
2021/12/01 02:33:28;;;;;;;;;12.00;9.00;;;;;11.61;65.46;100322.59;5022339;28;46556;-65
2021/12/01 02:35:54;;;;;;;;;4.25;4.00;;;;;11.60;65.58;100296.81;5022814;28;45409;-65
2021/12/01 02:38:20;;;;;;;;;10.00;10.00;;;;;11.60;65.43;100295.00;5022536;28;45730;-65
2021/12/01 02:40:46;;;;;;;;;10.25;9.00;;;;;11.61;65.70;100288.72;5022652;28;45247;-65
2021/12/01 02:43:12;;;;;;;;;11.25;9.00;;;;;11.58;65.82;100280.84;5022009;28;45502;-65
2021/12/01 02:45:39;;;;;;;;;11.50;7.75;;;;;11.59;65.73;100273.69;5022251;28;46304;-65
2021/12/01 02:48:05;;;;;;;;;11.00;11.00;;;;;11.58;65.94;100256.78;5021935;28;45526;-65
2021/12/01 02:50:30;;;;;;;;;9.75;9.00;;;;;11.57;65.96;100247.00;5022016;28;45313;-65
2021/12/01 02:52:55;;;;;;;;;10.00;8.00;;;;;11.63;66.00;100240.53;5021945;28;45422;-64
2021/12/01 02:55:21;;;;;;;;;11.00;9.00;;;;;11.58;66.10;100240.75;5022318;28;45375;-65
2021/12/01 02:57:51;;;;;;;;;8.50;8.50;;;;;11.56;66.01;100228.38;5022505;28;45351;-65
2021/12/01 03:00:19;;;;;;;;;5.75;5.75;;;;;11.55;66.35;100226.66;5022483;28;45462;-65
2021/12/01 03:02:45;;;;;;;;;9.00;9.00;;;;;11.53;66.35;100207.13;5021729;28;45458;-65
2021/12/01 03:05:11;;;;;;;;;5.00;4.50;;;;;11.49;66.10;100190.34;5022054;28;46331;-64
2021/12/01 03:07:38;;;;;;;;;5.00;5.00;;;;;11.55;66.22;100192.75;5021932;28;45338;-65
2021/12/01 03:10:05;;;;;;;;;4.25;4.25;;;;;11.50;66.31;100168.91;5022241;28;45338;-65
2021/12/01 03:12:34;;;;;;;;;3.75;3.75;;;;;11.51;66.25;100169.78;5020336;28;45446;-65
2021/12/01 03:14:59;;;;;;;;;5.75;3.75;;;;;11.50;65.98;100150.19;5021314;28;46119;-65
2021/12/01 03:17:29;;;;;;;;;3.75;3.75;;;;;11.54;66.69;100152.72;5021980;28;45250;-65
2021/12/01 03:19:55;;;;;;;;;5.75;5.25;;;;;11.50;66.43;100146.66;5022073;28;45379;-65
2021/12/01 03:22:21;;;;;;;;;2.25;2.25;;;;;11.47;66.31;100125.41;5021604;28;45540;-65
2021/12/01 03:24:47;;;;;;;;;2.25;2.25;;;;;11.49;66.40;100132.44;5021841;28;45220;-65
2021/12/01 03:27:13;;;;;;;;;3.00;3.00;;;;;11.54;66.41;100126.84;5022078;28;45322;-65
2021/12/01 03:29:38;;;;;;;;;2.00;2.00;;;;;11.58;66.45;100135.63;5022071;28;45439;-65
2021/12/01 03:32:06;;;;;;;;;2.50;2.50;;;;;11.56;66.55;100133.03;5021785;28;45306;-64
2021/12/01 03:34:32;;;;;;;;;5.00;2.50;;;;;11.52;66.57;100118.06;5022028;28;47028;-65
2021/12/01 03:36:59;;;;;;;;;2.00;2.00;;;;;11.54;66.89;100109.97;5021984;28;45319;-64
2021/12/01 03:39:24;;;;;;;;;3.00;1.50;;;;;11.56;66.64;100102.72;5021123;28;45476;-65
2021/12/01 03:41:50;;;;;;;;;3.75;1.75;;;;;11.55;66.76;100098.34;5021128;28;45253;-65
2021/12/01 03:44:15;;;;;;;;;2.00;2.00;;;;;11.53;66.69;100090.41;5021026;28;45415;-65
2021/12/01 03:46:40;;;;;;;;;3.00;3.00;;;;;11.56;66.56;100092.94;5021409;28;45268;-65
2021/12/01 03:49:06;;;;;;;;;2.00;2.00;;;;;11.56;67.08;100073.31;5021580;28;45260;-64
2021/12/01 03:51:31;;;;;;;;;1.50;1.50;;;;;11.59;67.02;100070.53;5021566;28;46580;-65
2021/12/01 03:53:57;;;;;;;;;3.75;3.00;;;;;11.55;67.50;100051.09;5021108;28;46219;-64
2021/12/01 03:56:22;;;;;;;;;3.25;2.00;;;;;11.56;67.26;100062.63;5021527;28;45434;-65
2021/12/01 03:58:48;;;;;;;;;4.50;4.00;;;;;11.53;67.66;100047.63;5021630;28;45306;-65
2021/12/01 04:01:13;;;;;;;;;3.25;3.25;;;;;11.47;67.96;100046.09;5021426;28;45286;-65
2021/12/01 04:03:39;;;;;;;;;5.50;4.50;;;;;11.44;67.83;100038.25;5026406;28;45915;-65
2021/12/01 04:06:04;;;;;;;;;5.00;3.25;;;;;11.44;67.92;100026.66;5021517;28;45360;-65
2021/12/01 04:08:31;;;;;;;;;3.75;3.00;;;;;11.48;68.14;100028.28;5021274;28;45659;-65
2021/12/01 04:10:57;;;;;;;;;5.00;5.00;;;;;11.47;67.93;100007.81;5021075;28;45452;-65
2021/12/01 04:13:22;;;;;;;;;5.00;4.00;;;;;11.47;68.33;99991.78;5020175;28;46907;-64
2021/12/01 04:15:48;;;;;;;;;4.25;4.00;;;;;11.52;68.36;99991.56;5021301;28;45345;-65
2021/12/01 04:18:13;;;;;;;;;3.00;3.00;;;;;11.51;68.64;99977.34;5021092;28;45636;-65
2021/12/01 04:20:39;;;;;;;;;8.00;6.25;;;;;11.50;68.54;99968.44;5020897;28;45449;-64
2021/12/01 04:23:05;;;;;;;;;4.25;4.00;;;;;11.49;68.40;99956.03;5020745;28;45338;-65
2021/12/01 04:25:30;;;;;;;;;6.00;6.00;;;;;11.52;69.11;99954.16;5021117;28;45556;-65
2021/12/01 04:27:56;;;;;;;;;5.00;5.00;;;;;11.46;69.14;99949.97;5021185;28;45342;-65
2021/12/01 04:30:23;;;;;;;;;6.00;5.00;;;;;11.49;69.14;99944.47;5020795;28;45573;-65
2021/12/01 04:32:50;;;;;;;;;5.25;5.25;;;;;11.45;69.18;99927.72;5020455;28;47381;-65
2021/12/01 04:35:17;;;;;;;;;5.50;5.50;;;;;11.44;69.27;99926.00;5021028;28;45367;-65
2021/12/01 04:37:44;;;;;;;;;4.00;4.00;;;;;11.45;69.28;99926.88;5020506;28;45318;-64
2021/12/01 04:40:10;;;;;;;;;5.25;5.25;;;;;11.43;69.56;99921.59;5020728;28;45314;-65
2021/12/01 04:42:35;;;;;;;;;3.50;3.50;;;;;11.43;69.33;99924.25;5020206;28;46720;-65
2021/12/01 04:45:02;;;;;;;;;8.75;4.00;;;;;11.45;69.28;99902.81;5020665;28;45382;-65
2021/12/01 04:47:33;;;;;;;;;4.00;4.00;;;;;11.45;69.57;99908.16;5020463;28;45319;-65
2021/12/01 04:49:59;;;;;;;;;4.00;4.00;;;;;11.42;69.69;99903.81;5020544;28;45358;-65
2021/12/01 04:52:24;;;;;;;;;1.00;1.00;;;;;11.47;69.88;99896.44;5019970;28;46255;-65
2021/12/01 04:54:50;;;;;;;;;3.00;3.00;;;;;11.45;69.53;99892.13;5020213;28;45349;-65
2021/12/01 04:57:16;;;;;;;;;3.75;2.25;;;;;11.41;69.99;99878.06;5020740;28;45377;-65
2021/12/01 04:59:41;;;;;;;;;3.75;1.75;;;;;11.44;69.86;99885.94;5020682;28;45212;-65
2021/12/01 05:02:07;;;;;;;;;2.00;2.00;;;;;11.47;69.80;99869.72;5019679;28;47094;-65
2021/12/01 05:04:32;;;;;;;;;2.25;2.25;;;;;11.48;69.59;99862.56;5020150;28;45383;-65
2021/12/01 05:06:58;;;;;;;;;3.75;2.50;;;;;11.48;69.86;99854.56;5020420;28;45378;-65
2021/12/01 05:09:23;;;;;;;;;1.25;1.25;;;;;11.54;69.66;99853.38;5020412;28;45548;-64
2021/12/01 05:11:49;;;;;;;;;1.00;1.00;;;;;11.48;69.98;99838.53;5019931;28;45484;-64
2021/12/01 05:14:15;;;;;;;;;2.00;2.00;;;;;11.48;69.63;99836.72;5018178;28;45355;-65
2021/12/01 05:16:41;;;;;;;;;1.00;1.00;;;;;11.45;69.86;99822.66;5020258;28;45305;-65
2021/12/01 05:19:08;;;;;;;;;0.75;0.75;;;;;11.45;70.09;99828.00;5020138;28;45448;-65
2021/12/01 05:21:35;;;;;;;;;3.00;0.00;;;;;11.44;69.99;99821.78;5019843;28;46183;-64
2021/12/01 05:24:00;;;;;;;;;0.00;0.00;;;;;11.44;70.01;99813.78;5020203;28;45310;-64
2021/12/01 05:26:26;;;;;;;;;2.00;1.00;;;;;11.41;69.79;99823.72;5020127;28;45322;-64
2021/12/01 05:28:51;;;;;;;;;0.00;0.00;;;;;11.41;70.33;99819.28;5019993;28;45458;-65
2021/12/01 05:31:17;;;;;;;;;0.75;0.00;;;;;11.42;70.15;99809.44;5019752;28;46198;-65
2021/12/01 05:33:42;;;;;;;;;4.75;1.50;;;;;11.39;70.27;99802.41;5019838;28;45330;-64
2021/12/01 05:36:08;;;;;;;;;0.75;0.75;;;;;11.37;70.47;99806.13;5020154;28;45331;-65
2021/12/01 05:38:33;;;;;;;;;1.00;1.00;;;;;11.37;70.46;99803.47;5019787;28;45522;-64
2021/12/01 05:41:00;;;;;;;;;0.00;0.00;;;;;11.37;70.48;99798.13;5017367;28;45252;-65
2021/12/01 05:43:25;;;;;;;;;0.00;0.00;;;;;11.35;70.38;99790.19;5019434;28;45244;-64
2021/12/01 05:45:51;;;;;;;;;1.75;0.75;;;;;11.38;70.63;99779.34;5019981;28;45295;-65
2021/12/01 05:48:17;;;;;;;;;3.00;1.00;;;;;11.31;70.84;99777.94;5019821;28;45410;-64
2021/12/01 05:50:43;;;;;;;;;0.00;0.00;;;;;11.30;70.49;99785.06;5019293;28;45496;-65
2021/12/01 05:53:09;;;;;;;;;0.00;0.00;;;;;11.31;70.58;99781.47;5019437;28;45438;-64
2021/12/01 05:55:36;;;;;;;;;0.25;0.00;;;;;11.31;70.82;99773.44;5019597;28;45437;-65
2021/12/01 05:58:01;;;;;;;;;0.00;0.00;;;;;11.32;70.85;99771.63;5020002;28;45431;-65
2021/12/01 06:00:26;;;;;;;;;0.00;0.00;;;;;11.33;70.81;99773.38;5019284;28;46179;-64
2021/12/01 06:02:52;;;;;;;;;0.00;0.00;;;;;11.31;71.26;99745.88;5020299;28;45462;-64
2021/12/01 06:05:19;;;;;;;;;0.00;0.00;;;;;11.28;70.74;99757.56;5025871;28;45504;-65
2021/12/01 06:07:45;;;;;;;;;1.50;1.00;;;;;11.28;71.17;99754.88;5026360;28;45479;-65
2021/12/01 06:10:10;;;;;;;;;1.00;1.00;;;;;11.30;71.52;99754.81;5025718;28;46115;-65
2021/12/01 06:12:38;;;;;;;;;1.75;0.25;;;;;11.26;71.20;99730.06;5023925;28;45752;-64
2021/12/01 06:15:07;;;;;;;;;0.50;0.50;;;;;11.33;71.13;99735.97;5025989;28;45361;-64
2021/12/01 06:17:33;;;;;;;;;1.00;1.00;;;;;11.35;71.32;99742.09;5025984;28;45390;-65
2021/12/01 06:19:59;;;;;;;;;0.00;0.00;;;;;11.33;71.21;99733.28;5025599;28;46164;-64
2021/12/01 06:22:24;;;;;;;;;0.25;0.00;;;;;11.32;71.40;99720.88;5026192;28;45286;-65
2021/12/01 06:24:49;;;;;;;;;0.50;0.50;;;;;11.35;71.30;99709.16;5025893;28;45286;-64
2021/12/01 06:27:14;;;;;;;;;2.00;1.00;;;;;11.35;71.50;99720.72;5025971;28;45310;-64
2021/12/01 06:29:40;;;;;;;;;0.00;0.00;;;;;11.39;71.36;99711.56;5025661;28;45397;-65
2021/12/01 06:32:05;;;;;;;;;1.00;1.00;;;;;11.41;71.70;99703.47;5024965;28;45436;-65
2021/12/01 06:34:31;;;;;;;;;0.00;0.00;;;;;11.42;71.45;99700.72;5025719;28;45212;-65
2021/12/01 06:36:56;;;;;;;;;0.00;0.00;;;;;11.41;71.77;99684.78;5025347;28;45401;-64
2021/12/01 06:39:22;;;;;;;;;0.00;0.00;;;;;11.42;71.40;99687.38;5025162;28;45429;-64
2021/12/01 06:41:47;;;;;;;;;0.00;0.00;;;;;11.41;72.16;99699.03;5025684;28;45394;-65
2021/12/01 06:44:13;;;;;;;;;0.75;0.75;;;;;11.40;71.91;99683.91;5025408;28;45263;-64
2021/12/01 06:46:38;;;;;;;;;0.00;0.00;;;;;11.43;71.83;99683.75;5025478;28;45591;-64
2021/12/01 06:49:03;;;;;;;;;0.25;0.25;;;;;11.42;71.80;99682.03;5025307;28;46563;-64
2021/12/01 06:51:29;;;;;;;;;2.00;1.00;;;;;11.47;72.04;99677.28;5024716;28;45426;-65
2021/12/01 06:53:54;;;;;;;;;3.00;3.00;;;;;11.45;71.80;99676.53;5025383;28;45340;-64
2021/12/01 06:56:21;;;;;;;;;1.00;1.00;;;;;11.52;72.08;99677.06;5025423;28;45338;-64
2021/12/01 06:58:47;;;;;;;;;0.25;0.25;;;;;11.53;71.93;99678.81;5025266;28;46322;-65
2021/12/01 07:01:13;;;;;;;;;0.00;0.00;;;;;11.55;72.18;99679.56;5024963;28;45307;-64
2021/12/01 07:03:39;;;;;;;;;0.75;0.75;;;;;11.55;72.30;99676.91;5025248;28;45318;-65
2021/12/01 07:06:05;;;;;;;;;0.00;0.00;;;;;11.52;72.26;99666.38;5025179;28;45232;-65
2021/12/01 07:08:31;;;;;;;;;0.00;0.00;;;;;11.58;72.22;99670.53;5025288;28;46095;-65
2021/12/01 07:10:57;;;;;;;;;0.00;0.00;;;;;11.58;71.91;99663.38;5023847;28;45276;-65
2021/12/01 07:13:23;;;;;;;;;0.00;0.00;;;;;11.63;72.34;99666.66;5024833;28;45462;-65
2021/12/01 07:15:48;;;;;;;;;0.00;0.00;;;;;11.65;71.93;99655.91;5021569;28;45364;-67
2021/12/01 07:18:13;;;;;;;;;0.00;0.00;;;;;11.67;72.19;99651.31;5021520;28;45316;-67
2021/12/01 07:20:39;;;;;;;;;0.00;0.00;;;;;11.72;71.95;99657.28;5021504;28;45461;-66
2021/12/01 07:23:04;;;;;;;;;0.00;0.00;;;;;11.75;72.29;99651.75;5021354;28;45469;-67
2021/12/01 07:25:31;;;;;;;;;0.00;0.00;;;;;11.74;72.30;99658.03;5021511;28;45313;-68
2021/12/01 07:27:56;;;;;;;;;0.00;0.00;;;;;11.70;72.20;99653.81;5022026;28;45346;-69
2021/12/01 07:30:22;;;;;;;;;0.00;0.00;;;;;11.73;72.42;99651.00;5021675;28;46521;-69
2021/12/01 07:32:49;;;;;;;;;0.00;0.00;;;;;11.74;72.33;99644.69;5021958;28;45457;-68
2021/12/01 07:35:14;;;;;;;;;0.00;0.00;;;;;11.80;72.24;99654.19;5021802;28;45537;-68
2021/12/01 07:37:40;;;;;;;;;0.25;0.00;;;;;11.78;72.58;99648.06;5022041;28;45168;-69
2021/12/01 07:40:06;;;;;;;;;0.00;0.00;;;;;11.75;72.50;99646.41;5019650;28;45395;-68
2021/12/01 07:42:31;;;;;;;;;0.00;0.00;;;;;11.82;72.27;99654.97;5022154;28;45405;-68
2021/12/01 07:44:57;;;;;;;;;0.00;0.00;;;;;11.84;72.37;99651.28;5017962;28;45295;-68
2021/12/01 07:47:22;;;;;;;;;0.00;0.00;;;;;11.91;72.10;99654.50;5021334;28;45442;-67
2021/12/01 07:49:47;;;;;;;;;0.00;0.00;;;;;11.90;72.29;99658.09;5021085;28;46489;-65
2021/12/01 07:52:13;;;;;;;;;0.00;0.00;;;;;11.87;72.56;99653.75;5020665;28;45389;-69
2021/12/01 07:54:41;;;;;;;;;0.00;0.00;;;;;11.91;72.46;99654.50;5021426;28;45633;-66
2021/12/01 07:57:08;;;;;;;;;0.00;0.00;;;;;11.92;72.17;99642.00;5015385;28;46191;-65
2021/12/01 07:59:34;;;;;;;;;0.00;0.00;;;;;11.97;72.41;99647.94;5020024;28;45359;-66
2021/12/01 08:01:59;;;;;;;;;0.00;0.00;;;;;12.00;72.16;99647.78;5020259;28;45439;-66
2021/12/01 08:04:25;;;;;;;;;0.00;0.00;;;;;12.01;72.21;99650.38;5021194;28;45276;-66
2021/12/01 08:06:50;;;;;;;;;0.50;0.00;;;;;12.05;72.00;99640.34;5020859;28;46192;-66
2021/12/01 08:09:15;;;;;;;;;0.00;0.00;;;;;12.04;72.06;99638.63;5020436;28;45235;-66
2021/12/01 08:11:41;;;;;;;;;0.00;0.00;;;;;12.10;72.07;99624.06;5020964;28;45681;-66
2021/12/01 08:14:06;;;;;;;;;1.00;0.00;;;;;12.13;71.99;99634.56;5014591;28;45471;-66
2021/12/01 08:16:36;;;;;;;;;0.00;0.00;;;;;12.15;71.90;99627.34;5018807;28;45980;-66
2021/12/01 08:19:02;;;;;;;;;0.00;0.00;;;;;12.16;72.05;99626.38;5019582;28;45679;-66
2021/12/01 08:21:27;;;;;;;;;0.00;0.00;;;;;12.15;72.17;99621.97;5020003;28;45484;-66
2021/12/01 08:23:53;;;;;;;;;0.75;0.00;;;;;12.16;72.01;99629.91;5020038;28;45599;-66
2021/12/01 08:26:23;;;;;;;;;0.00;0.00;;;;;12.17;71.94;99620.06;5017615;28;47200;-66
2021/12/01 08:28:49;;;;;;;;;0.00;0.00;;;;;12.16;72.13;99612.97;5035225;28;45472;-66
2021/12/01 08:31:15;;;;;;;;;0.00;0.00;;;;;12.20;71.58;99618.09;5018802;28;45583;-66
2021/12/01 08:33:42;;;;;;;;;0.00;0.00;;;;;12.23;71.83;99614.38;5017293;28;45406;-67
2021/12/01 08:36:09;;;;;;;;;0.00;0.00;;;;;12.17;71.88;99596.84;5019465;28;46175;-67
2021/12/01 08:38:35;;;;;;;;;0.00;0.00;;;;;12.21;71.71;99595.75;5019606;28;45368;-72
2021/12/01 08:41:01;;;;;;;;;0.00;0.00;;;;;12.22;71.82;99597.44;5019429;28;45315;-72
2021/12/01 08:43:26;;;;;;;;;3.00;3.00;;;;;12.26;71.66;99614.19;5019953;28;45569;-71
2021/12/01 08:45:51;;;;;;;;;0.25;0.25;;;;;12.27;71.64;99613.25;5019842;28;46118;-72
2021/12/01 08:48:17;;;;;;;;;0.00;0.00;;;;;12.29;71.70;99613.16;5019558;28;45323;-71
2021/12/01 08:50:42;;;;;;;;;1.00;0.00;;;;;12.32;71.96;99611.16;5019771;28;45450;-71
2021/12/01 08:53:08;;;;;;;;;0.00;0.00;;;;;12.36;71.96;99609.16;5019638;28;45595;-71
2021/12/01 08:55:34;;;;;;;;;1.00;1.00;;;;;12.35;71.89;99619.03;5019802;28;45437;-71
2021/12/01 08:57:59;;;;;;;;;1.00;0.00;;;;;12.33;71.82;99618.25;5019513;28;45547;-70
2021/12/01 09:00:24;;;;;;;;;0.50;0.50;;;;;12.36;71.56;99611.84;5019842;28;45508;-70
2021/12/01 09:02:50;;;;;;;;;0.00;0.00;;;;;12.42;71.61;99622.19;5018341;28;45697;-72
2021/12/01 09:05:15;;;;;;;;;0.00;0.00;;;;;12.42;71.40;99617.69;5019395;28;47412;-72
2021/12/01 09:07:41;;;;;;;;;0.00;0.00;;;;;12.41;71.26;99616.00;5016609;28;45443;-70
2021/12/01 09:10:07;;;;;;;;;0.50;0.00;;;;;12.45;71.15;99610.47;5019866;28;45334;-70
2021/12/01 09:12:33;;;;;;;;;1.00;1.00;;;;;12.51;71.26;99618.13;5018122;28;45484;-71
2021/12/01 09:14:58;;;;;;;;;0.00;0.00;;;;;12.49;70.94;99601.28;5018786;28;46445;-69
2021/12/01 09:17:25;;;;;;;;;0.00;0.00;;;;;12.57;70.78;99615.94;5019309;28;45482;-69
2021/12/01 09:19:52;;;;;;;;;0.00;0.00;;;;;12.57;70.74;99613.28;5019494;28;45233;-69
2021/12/01 09:22:18;;;;;;;;;0.00;0.00;;;;;12.60;70.50;99605.06;5018616;28;45511;-75
2021/12/01 09:24:45;;;;;;;;;0.00;0.00;;;;;12.67;70.73;99616.28;5018702;28;45531;-69
2021/12/01 09:27:10;;;;;;;;;0.00;0.00;;;;;12.68;70.13;99618.00;5017550;28;45757;-70
2021/12/01 09:29:36;;;;;;;;;0.50;0.00;;;;;12.72;69.86;99616.00;5019012;28;45493;-70
2021/12/01 09:32:03;;;;;;;;;0.00;0.00;;;;;12.71;69.94;99600.88;5019347;28;45393;-70
2021/12/01 09:34:28;;;;;;;;;0.00;0.00;;;;;12.74;69.22;99614.94;5019609;28;47738;-70
2021/12/01 09:36:56;;;;;;;;;0.00;0.00;;;;;12.72;69.54;99602.63;5019678;28;45394;-70
2021/12/01 09:39:22;;;;;;;;;0.00;0.00;;;;;12.74;69.77;99620.31;5017600;28;45486;-70
2021/12/01 09:41:47;;;;;;;;;0.00;0.00;;;;;12.75;69.08;99608.66;5019133;28;45239;-70
2021/12/01 09:44:13;;;;;;;;;0.75;0.00;;;;;12.75;68.92;99613.16;5018924;28;46089;-70
2021/12/01 09:46:38;;;;;;;;;0.00;0.00;;;;;12.77;68.53;99624.63;5018464;28;45375;-70
2021/12/01 09:49:04;;;;;;;;;0.00;0.00;;;;;12.76;68.87;99633.59;5016938;28;45453;-69
2021/12/01 09:51:29;;;;;;;;;0.00;0.00;;;;;12.72;68.22;99627.56;5017199;28;45593;-68
2021/12/01 09:53:56;;;;;;;;;0.00;0.00;;;;;12.73;68.56;99629.31;5018754;28;46036;-68
2021/12/01 09:56:21;;;;;;;;;0.00;0.00;;;;;12.72;68.71;99637.44;5019071;28;45375;-68
2021/12/01 09:58:47;;;;;;;;;0.25;0.25;;;;;12.73;68.51;99641.81;5018683;28;45398;-68
2021/12/01 10:01:17;;;;;;;;;1.00;0.00;;;;;12.74;68.51;99640.88;5017998;28;45173;-68
2021/12/01 10:03:44;;;;;;;;;0.50;0.00;;;;;12.73;68.39;99637.34;5018542;28;46221;-68
2021/12/01 10:06:13;;;;;;;;;0.00;0.00;;;;;12.75;68.47;99643.47;5018785;28;45545;-68
2021/12/01 10:08:57;;;;;;;;;1.00;0.25;;;;;12.78;68.70;99642.44;5018180;28;45527;-68
2021/12/01 10:11:27;;;;;;;;;0.25;0.00;;;;;12.78;68.67;99640.59;5017349;28;45382;-68
2021/12/01 10:14:08;;;;;;;;;0.00;0.00;;;;;12.78;68.54;99634.41;5015897;28;47061;-68
2021/12/01 10:16:37;;;;;;;;;0.00;0.00;;;;;12.78;68.88;99639.75;5018303;28;45259;-68
2021/12/01 10:19:08;;;;;;;;;0.00;0.00;;;;;12.82;68.97;99633.25;5019359;28;45700;-68
2021/12/01 10:21:37;;;;;;;;;0.00;0.00;;;;;12.85;68.94;99627.72;5018901;28;45599;-68
2021/12/01 10:24:10;;;;;;;;;3.00;1.75;;;;;12.87;68.42;99627.63;5018946;28;45391;-68
2021/12/01 10:26:40;;;;;;;;;0.00;0.00;;;;;12.87;68.42;99624.94;5018402;28;45404;-68
2021/12/01 10:29:09;;;;;;;;;0.25;0.25;;;;;12.86;68.25;99625.88;5017869;28;45406;-68
2021/12/01 10:31:45;;;;;;;;;1.50;0.50;;;;;12.86;68.49;99616.03;5018168;28;46431;-68
2021/12/01 10:34:19;;;;;;;;;1.50;1.00;;;;;12.87;68.32;99631.16;5015484;28;45394;-69
2021/12/01 10:36:47;;;;;;;;;0.50;0.00;;;;;12.87;68.21;99643.69;5018401;28;45310;-69
2021/12/01 10:39:12;;;;;;;;;2.00;0.00;;;;;12.83;68.10;99636.78;5017889;28;45521;-69
2021/12/01 10:41:40;;;;;;;;;1.00;0.00;;;;;12.77;68.18;99641.56;5018132;28;45734;-69
2021/12/01 10:44:24;;;;;;;;;0.00;0.00;;;;;12.65;68.10;99636.06;5018343;28;47006;-68
2021/12/01 10:46:53;;;;;;;;;0.25;0.25;;;;;12.66;68.07;99641.31;5017819;28;45434;-69
2021/12/01 10:49:34;;;;;;;;;1.00;1.00;;;;;12.67;68.22;99634.16;5018617;28;45376;-68
2021/12/01 10:51:59;;;;;;;;;1.00;1.00;;;;;12.68;67.71;99639.44;5021243;28;45441;-68
2021/12/01 10:54:26;;;;;;;;;2.25;0.25;;;;;12.67;68.29;99640.38;5021759;28;46173;-68
2021/12/01 10:57:18;;;;;;;;;1.00;0.50;;;;;12.69;68.31;99643.81;5020935;28;45437;-68
2021/12/01 10:59:47;;;;;;;;;1.00;0.00;;;;;12.70;68.08;99642.88;5021508;28;45547;-69
2021/12/01 11:02:12;;;;;;;;;0.75;0.00;;;;;12.68;67.91;99636.75;5022117;28;45253;-67
2021/12/01 11:04:49;;;;;;;;;0.00;0.00;;;;;12.71;68.05;99638.38;5021965;28;46098;-68
2021/12/01 11:07:31;;;;;;;;;2.50;0.50;;;;;12.73;68.20;99634.66;5020221;28;45489;-67
2021/12/01 11:10:20;;;;;;;;;0.75;0.75;;;;;12.74;67.54;99633.69;5020021;28;45541;-68
2021/12/01 11:13:12;;;;;;;;;0.00;0.00;;;;;12.74;67.40;99622.97;5020713;28;45344;-68
2021/12/01 11:15:41;;;;;;;;;0.00;0.00;;;;;12.76;67.33;99622.91;5011650;28;46130;-68
2021/12/01 11:18:09;;;;;;;;;2.00;1.00;;;;;12.77;67.48;99621.94;5037114;28;45325;-69
2021/12/01 11:20:37;;;;;;;;;0.25;0.25;;;;;12.78;67.47;99627.22;5022248;28;45559;-68
2021/12/01 11:23:09;;;;;;;;;2.75;1.00;;;;;12.81;67.25;99625.31;5021300;28;45299;-68
2021/12/01 11:25:36;;;;;;;;;1.00;1.00;;;;;12.78;67.42;99626.38;5021884;28;46085;-68
2021/12/01 11:28:08;;;;;;;;;0.50;0.50;;;;;12.76;66.86;99622.91;5021662;28;45399;-68
2021/12/01 11:30:33;;;;;;;;;0.75;0.50;;;;;12.76;66.45;99623.78;5022299;28;45405;-68
2021/12/01 11:32:59;;;;;;;;;0.00;0.00;;;;;12.76;66.36;99622.91;5021493;28;45398;-68